Time;durP1;ratioP1;P1;durP2;ratioP2;P2;SDS_P1;SDS_P2;PMS_P1;PMS_P2;Temp;Humidity;BMP_temperature;BMP_pressure;BME280_temperature;BME280_humidity;BME280_pressure;Samples;Min_cycle;Max_cycle;Signal;HPM_P1;HPM_P2
2023/12/20 00:00:35;;;;;;;22.32;16.45;;;;;;;5.48;100.00;99472.17;1668032;84;25923;-62
2023/12/20 00:03:05;;;;;;;28.83;18.00;;;;;;;5.47;100.00;99464.67;1666095;84;25950;-62
2023/12/20 00:05:32;;;;;;;26.00;17.27;;;;;;;5.47;100.00;99461.21;1662514;85;25463;-61
2023/12/20 00:07:59;;;;;;;24.95;16.85;;;;;;;5.45;100.00;99458.00;1658901;84;28039;-62
2023/12/20 00:10:26;;;;;;;24.43;16.10;;;;;;;5.44;100.00;99449.17;1656479;84;25557;-61
2023/12/20 00:12:53;;;;;;;23.77;16.32;;;;;;;5.43;100.00;99454.27;1663474;84;25847;-61
2023/12/20 00:15:20;;;;;;;26.25;17.12;;;;;;;5.41;100.00;99443.05;1671806;84;26301;-61
2023/12/20 00:17:47;;;;;;;23.27;15.70;;;;;;;5.41;100.00;99442.52;1664222;84;25878;-61
2023/12/20 00:20:14;;;;;;;24.57;16.70;;;;;;;5.39;100.00;99444.68;1667923;84;27451;-61
2023/12/20 00:22:41;;;;;;;22.15;15.43;;;;;;;5.40;100.00;99452.20;1668870;85;25859;-61
2023/12/20 00:25:08;;;;;;;22.07;14.53;;;;;;;5.40;100.00;99444.94;1669163;84;25904;-63
2023/12/20 00:27:35;;;;;;;22.73;15.25;;;;;;;5.38;100.00;99440.42;1671508;84;25942;-61
2023/12/20 00:30:02;;;;;;;22.77;15.93;;;;;;;5.38;100.00;99437.74;1665068;85;26078;-62
2023/12/20 00:32:30;;;;;;;21.20;15.58;;;;;;;5.38;100.00;99439.08;1666680;84;27500;-61
2023/12/20 00:34:57;;;;;;;23.35;14.85;;;;;;;5.39;100.00;99439.31;1662676;85;25860;-62
2023/12/20 00:37:24;;;;;;;21.15;14.73;;;;;;;5.39;100.00;99438.53;1665244;84;25938;-61
2023/12/20 00:39:50;;;;;;;21.95;14.53;;;;;;;5.41;100.00;99428.30;1675453;84;26283;-61
2023/12/20 00:42:17;;;;;;;22.10;14.68;;;;;;;5.40;100.00;99423.48;1638556;84;25514;-65
2023/12/20 00:44:44;;;;;;;21.87;15.10;;;;;;;5.42;100.00;99421.85;1680430;83;28355;-65
2023/12/20 00:47:11;;;;;;;20.23;15.30;;;;;;;5.44;100.00;99423.69;1677196;83;26209;-65
2023/12/20 00:49:38;;;;;;;20.70;15.32;;;;;;;5.46;100.00;99426.08;1674914;84;25760;-61
2023/12/20 00:52:11;;;;;;;20.68;14.75;;;;;;;5.47;100.00;99419.63;1681331;83;26860;-62
2023/12/20 00:54:38;;;;;;;18.00;13.60;;;;;;;5.46;100.00;99419.38;1628319;87;25995;-61
2023/12/20 00:57:05;;;;;;;22.45;14.35;;;;;;;5.46;100.00;99414.01;1632210;86;28354;-60
2023/12/20 00:59:32;;;;;;;19.37;13.75;;;;;;;5.47;100.00;99415.61;1630579;86;25847;-60
2023/12/20 01:01:58;;;;;;;21.90;15.10;;;;;;;5.46;100.00;99411.33;1633329;87;26444;-60
2023/12/20 01:04:25;;;;;;;20.45;14.38;;;;;;;5.45;100.00;99407.86;1624899;87;26194;-60
2023/12/20 01:06:53;;;;;;;18.98;13.18;;;;;;;5.44;100.00;99411.62;1636832;86;25918;-61
2023/12/20 01:09:23;;;;;;;22.30;13.75;;;;;;;5.44;100.00;99408.94;1626335;87;27711;-60
2023/12/20 01:11:49;;;;;;;20.00;13.83;;;;;;;5.46;100.00;99408.09;1632311;87;26092;-60
2023/12/20 01:14:16;;;;;;;21.27;13.93;;;;;;;5.46;100.00;99398.70;1626805;86;25807;-60
2023/12/20 01:16:43;;;;;;;20.20;13.60;;;;;;;5.48;100.00;99403.22;1617364;87;26239;-61
2023/12/20 01:19:10;;;;;;;18.95;12.37;;;;;;;5.49;100.00;99404.03;1602400;87;25907;-61
2023/12/20 01:21:37;;;;;;;17.52;13.03;;;;;;;5.48;100.00;99402.43;1615073;87;28120;-60
2023/12/20 01:24:05;;;;;;;17.92;12.28;;;;;;;5.47;100.00;99398.96;1611172;87;25884;-59
2023/12/20 01:26:31;;;;;;;16.90;12.28;;;;;;;5.50;100.00;99397.56;1600072;87;25585;-61
2023/12/20 01:28:58;;;;;;;18.75;12.65;;;;;;;5.49;100.00;99400.80;1604577;87;26010;-63
2023/12/20 01:31:27;;;;;;;16.45;12.37;;;;;;;5.49;100.00;99402.14;1627940;82;25877;-61
2023/12/20 01:33:54;;;;;;;18.32;12.20;;;;;;;5.50;100.00;99397.03;1688166;83;27897;-60
2023/12/20 01:36:21;;;;;;;17.52;12.25;;;;;;;5.49;100.00;99388.73;1682566;83;25453;-60
2023/12/20 01:38:48;;;;;;;17.90;12.47;;;;;;;5.50;100.00;99397.56;1688516;83;26723;-60
2023/12/20 01:41:15;;;;;;;16.73;12.15;;;;;;;5.50;100.00;99386.83;1690307;83;25844;-60
2023/12/20 01:43:43;;;;;;;17.65;11.80;;;;;;;5.50;100.00;99384.14;1688408;83;25703;-60
2023/12/20 01:46:12;;;;;;;17.40;12.20;;;;;;;5.50;100.00;99382.81;1683258;83;27397;-60
2023/12/20 01:48:39;;;;;;;17.32;11.95;;;;;;;5.51;100.00;99380.38;1680025;83;26479;-60
2023/12/20 01:51:06;;;;;;;17.40;12.43;;;;;;;5.51;100.00;99385.75;1677840;83;25469;-60
2023/12/20 01:53:33;;;;;;;17.23;11.53;;;;;;;5.51;100.00;99387.09;1678425;83;26627;-60
2023/12/20 01:56:02;;;;;;;16.52;11.68;;;;;;;5.50;100.00;99376.09;1694075;83;25793;-59
2023/12/20 01:58:29;;;;;;;16.87;11.65;;;;;;;5.49;100.00;99378.00;1686502;83;27523;-58
2023/12/20 02:00:57;;;;;;;14.43;11.03;;;;;;;5.50;100.00;99372.08;1655734;84;25740;-59
2023/12/20 02:03:24;;;;;;;15.78;11.68;;;;;;;5.51;100.00;99372.34;1674372;84;25911;-59
2023/12/20 02:05:51;;;;;;;15.78;11.18;;;;;;;5.50;100.00;99368.87;1688980;83;25901;-59
2023/12/20 02:08:18;;;;;;;19.17;13.20;;;;;;;5.51;100.00;99369.66;1671848;83;25465;-59
2023/12/20 02:10:46;;;;;;;18.32;12.15;;;;;;;5.50;100.00;99364.84;1687592;83;28061;-59
2023/12/20 02:13:13;;;;;;;17.82;13.78;;;;;;;5.49;100.00;99369.95;1685443;83;25899;-59
2023/12/20 02:15:43;;;;;;;16.37;13.45;;;;;;;5.49;100.00;99360.56;1685652;82;25433;-60
2023/12/20 02:18:10;;;;;;;20.27;14.10;;;;;;;5.49;100.00;99367.27;1687419;83;25779;-60
2023/12/20 02:20:36;;;;;;;17.45;14.03;;;;;;;5.48;100.00;99356.28;1680965;83;26402;-60
2023/12/20 02:23:04;;;;;;;19.82;13.98;;;;;;;5.50;100.00;99359.48;1664007;83;27359;-60
2023/12/20 02:25:31;;;;;;;18.85;13.80;;;;;;;5.49;100.00;99358.44;1666599;83;25844;-61
2023/12/20 02:27:58;;;;;;;20.77;14.53;;;;;;;5.50;100.00;99356.80;1684442;83;26971;-60
2023/12/20 02:30:25;;;;;;;16.42;12.68;;;;;;;5.50;100.00;99354.11;1690650;83;26707;-61
2023/12/20 02:32:54;;;;;;;16.52;12.40;;;;;;;5.51;100.00;99353.56;1679250;83;25421;-61
2023/12/20 02:35:20;;;;;;;14.87;11.80;;;;;;;5.51;100.00;99360.27;1690281;83;27382;-61
2023/12/20 02:37:47;;;;;;;16.35;12.45;;;;;;;5.51;100.00;99348.20;1654836;84;25840;-67
2023/12/20 02:40:15;;;;;;;15.53;12.05;;;;;;;5.50;100.00;99343.39;1642683;85;25530;-63
2023/12/20 02:42:41;;;;;;;13.30;10.48;;;;;;;5.51;100.00;99346.30;1671386;84;26325;-62
2023/12/20 02:45:09;;;;;;;15.25;11.15;;;;;;;5.49;100.00;99339.66;1662554;84;25764;-62
2023/12/20 02:47:36;;;;;;;14.18;10.18;;;;;;;5.49;100.00;99341.78;1645026;84;27518;-63
2023/12/20 02:50:04;;;;;;;13.65;9.68;;;;;;;5.50;100.00;99346.06;1646624;85;25518;-64
2023/12/20 02:52:31;;;;;;;11.88;8.65;;;;;;;5.50;100.00;99333.19;1701438;83;25883;-62
2023/12/20 02:54:57;;;;;;;13.65;8.70;;;;;;;5.50;100.00;99328.64;1695403;83;25884;-63
2023/12/20 02:57:24;;;;;;;9.33;7.62;;;;;;;5.51;100.00;99335.57;1685358;83;25481;-62
2023/12/20 02:59:51;;;;;;;10.43;8.00;;;;;;;5.50;100.00;99336.69;1648007;85;28429;-63
2023/12/20 03:02:18;;;;;;;9.55;7.33;;;;;;;5.51;100.00;99331.55;1679359;84;26399;-62
2023/12/20 03:04:45;;;;;;;10.03;7.78;;;;;;;5.52;100.00;99329.68;1677278;84;25790;-62
2023/12/20 03:07:12;;;;;;;11.78;7.67;;;;;;;5.54;100.00;99324.25;1685665;83;26776;-62
2023/12/20 03:09:39;;;;;;;11.73;7.37;;;;;;;5.53;100.00;99321.30;1668120;83;25804;-62
2023/12/20 03:12:06;;;;;;;9.18;6.62;;;;;;;5.54;100.00;99318.88;1665349;83;27493;-62
2023/12/20 03:14:32;;;;;;;9.08;6.50;;;;;;;5.55;100.00;99321.83;1677254;83;25413;-62
2023/12/20 03:16:59;;;;;;;9.05;6.28;;;;;;;5.54;100.00;99323.46;1663546;84;25549;-63
2023/12/20 03:19:26;;;;;;;9.95;6.00;;;;;;;5.53;100.00;99313.26;1666489;83;26273;-63
2023/12/20 03:21:53;;;;;;;8.88;6.17;;;;;;;5.51;100.00;99309.30;1683059;83;25777;-64
2023/12/20 03:24:20;;;;;;;7.25;5.95;;;;;;;5.51;100.00;99307.96;1660924;84;27363;-62
2023/12/20 03:26:47;;;;;;;9.30;6.30;;;;;;;5.51;100.00;99307.96;1681021;83;25890;-62
2023/12/20 03:29:14;;;;;;;7.78;6.03;;;;;;;5.49;100.00;99302.89;1666834;84;25813;-63
2023/12/20 03:31:41;;;;;;;7.50;5.85;;;;;;;5.49;100.00;99318.20;1655215;85;26308;-63
2023/12/20 03:34:08;;;;;;;7.53;6.10;;;;;;;5.48;100.00;99324.09;1688848;83;25639;-63
2023/12/20 03:36:34;;;;;;;7.58;5.97;;;;;;;5.49;100.00;99327.03;1683259;83;27375;-63
2023/12/20 03:39:01;;;;;;;8.00;5.72;;;;;;;5.50;100.00;99319.77;1694258;82;26349;-63
2023/12/20 03:41:28;;;;;;;7.42;5.78;;;;;;;5.50;100.00;99316.56;1678856;83;25489;-62
2023/12/20 03:43:55;;;;;;;6.87;5.97;;;;;;;5.50;100.00;99305.84;1653359;84;25806;-63
2023/12/20 03:46:22;;;;;;;8.20;6.25;;;;;;;5.50;100.00;99302.34;1672917;84;25865;-62
2023/12/20 03:48:49;;;;;;;8.23;6.15;;;;;;;5.49;100.00;99304.79;1666562;84;28178;-62
2023/12/20 03:51:16;;;;;;;9.13;6.10;;;;;;;5.49;100.00;99306.13;1680511;83;25491;-62
2023/12/20 03:53:43;;;;;;;10.45;6.45;;;;;;;5.49;100.00;99306.13;1697627;83;25918;-62
2023/12/20 03:56:10;;;;;;;8.25;6.47;;;;;;;5.48;100.00;99306.66;1687537;83;26695;-62
2023/12/20 03:58:37;;;;;;;10.35;6.45;;;;;;;5.50;100.00;99305.02;1699823;82;25538;-62
2023/12/20 04:01:04;;;;;;;8.88;6.80;;;;;;;5.49;100.00;99304.23;1691601;83;28091;-63
2023/12/20 04:03:30;;;;;;;11.45;7.65;;;;;;;5.51;100.00;99314.66;1659239;84;25888;-62
2023/12/20 04:05:57;;;;;;;8.85;7.62;;;;;;;5.49;100.00;99309.59;1660351;83;25834;-63
2023/12/20 04:08:24;;;;;;;8.18;6.90;;;;;;;5.50;100.00;99307.17;1666402;83;26324;-63
2023/12/20 04:10:51;;;;;;;9.93;7.78;;;;;;;5.48;100.00;99293.25;1675377;82;25847;-62
2023/12/20 04:13:18;;;;;;;9.95;7.08;;;;;;;5.49;100.00;99292.16;1672068;83;28192;-63
2023/12/20 04:15:45;;;;;;;9.98;7.08;;;;;;;5.48;100.00;99301.30;1687434;83;25744;-63
2023/12/20 04:18:12;;;;;;;9.60;7.40;;;;;;;5.48;100.00;99301.84;1679745;83;25805;-63
2023/12/20 04:20:39;;;;;;;9.13;7.50;;;;;;;5.48;100.00;99308.55;1658966;84;26645;-63
2023/12/20 04:23:07;;;;;;;10.43;7.30;;;;;;;5.48;100.00;99297.27;1663352;84;25867;-64
2023/12/20 04:25:34;;;;;;;9.90;7.10;;;;;;;5.49;100.00;99293.50;1688035;83;27778;-63
2023/12/20 04:28:01;;;;;;;13.30;7.42;;;;;;;5.49;100.00;99310.94;1679624;83;25775;-63
2023/12/20 04:30:27;;;;;;;9.20;7.58;;;;;;;5.50;100.00;99301.00;1660862;84;25916;-63
2023/12/20 04:32:54;;;;;;;8.55;7.35;;;;;;;5.52;100.00;99291.57;1657656;83;25956;-63
2023/12/20 04:35:21;;;;;;;8.38;6.90;;;;;;;5.51;100.00;99292.66;1659923;84;25882;-63
2023/12/20 04:37:49;;;;;;;9.78;7.55;;;;;;;5.50;100.00;99308.52;1684361;83;28334;-64
2023/12/20 04:40:17;;;;;;;8.68;7.25;;;;;;;5.50;100.00;99299.13;1690596;83;26188;-64
2023/12/20 04:42:44;;;;;;;9.08;7.42;;;;;;;5.50;100.00;99292.42;1688117;83;25838;-64
2023/12/20 04:45:12;;;;;;;9.33;7.42;;;;;;;5.49;100.00;99289.48;1688698;83;25927;-64
2023/12/20 04:47:39;;;;;;;10.05;7.65;;;;;;;5.49;100.00;99294.06;1702963;83;25796;-64
2023/12/20 04:50:08;;;;;;;8.98;7.33;;;;;;;5.49;100.00;99305.58;1686517;83;28542;-63
2023/12/20 04:52:34;;;;;;;10.50;7.87;;;;;;;5.49;100.00;99300.21;1703871;83;25844;-64
2023/12/20 04:55:02;;;;;;;9.35;7.40;;;;;;;5.50;100.00;99296.97;1659612;84;25790;-63
2023/12/20 04:57:29;;;;;;;8.38;7.17;;;;;;;5.49;100.00;99301.55;1664228;84;25684;-63
2023/12/20 04:59:56;;;;;;;10.00;8.00;;;;;;;5.49;100.00;99303.45;1641694;85;25840;-64
2023/12/20 05:02:23;;;;;;;10.58;8.43;;;;;;;5.50;100.00;99301.81;1687988;83;27738;-63
2023/12/20 05:04:51;;;;;;;11.20;8.00;;;;;;;5.51;100.00;99298.02;1681231;83;25696;-64
2023/12/20 05:07:18;;;;;;;12.47;8.93;;;;;;;5.52;100.00;99300.95;1674878;83;25967;-63
2023/12/20 05:09:45;;;;;;;10.63;8.20;;;;;;;5.51;100.00;99292.66;1698446;82;25612;-64
2023/12/20 05:12:12;;;;;;;11.48;8.25;;;;;;;5.52;100.00;99291.57;1661516;85;25864;-64
2023/12/20 05:14:40;;;;;;;13.43;8.65;;;;;;;5.53;100.00;99288.33;1672941;83;28042;-64
2023/12/20 05:17:07;;;;;;;13.22;9.38;;;;;;;5.54;100.00;99292.62;1673378;83;25996;-64
2023/12/20 05:19:35;;;;;;;11.22;7.85;;;;;;;5.54;100.00;99286.70;1680798;83;25510;-64
2023/12/20 05:22:03;;;;;;;10.88;8.10;;;;;;;5.55;100.00;99283.45;1659906;82;25664;-65
2023/12/20 05:24:30;;;;;;;11.28;8.20;;;;;;;5.55;100.00;99274.88;1685824;83;25866;-65
2023/12/20 05:26:56;;;;;;;12.35;8.93;;;;;;;5.54;100.00;99269.81;1682133;83;27900;-65
2023/12/20 05:29:45;;;;;;;11.03;8.58;;;;;;;5.55;100.00;99274.06;1699143;83;26015;-66
2023/12/20 05:32:12;;;;;;;11.73;9.25;;;;;;;5.54;100.00;99278.65;1715399;82;25972;-64
2023/12/20 05:34:39;;;;;;;11.93;8.48;;;;;;;5.55;100.00;99276.22;1718900;82;26692;-64
2023/12/20 05:37:06;;;;;;;10.98;8.38;;;;;;;5.54;100.00;99267.13;1713568;82;25780;-64
2023/12/20 05:39:33;;;;;;;12.10;8.30;;;;;;;5.55;100.00;99274.06;1755403;80;28412;-64
2023/12/20 05:42:00;;;;;;;11.05;8.90;;;;;;;5.53;100.00;99271.68;1759710;80;25719;-65
2023/12/20 05:44:27;;;;;;;10.93;8.78;;;;;;;5.53;100.00;99268.22;1763051;80;25826;-64
2023/12/20 05:46:54;;;;;;;12.60;9.45;;;;;;;5.51;100.00;99275.22;1755479;80;26736;-65
2023/12/20 05:49:21;;;;;;;14.18;9.40;;;;;;;5.50;100.00;99267.47;1755484;80;25828;-66
2023/12/20 05:51:48;;;;;;;12.53;9.98;;;;;;;5.50;100.00;99272.83;1751852;80;28015;-65
2023/12/20 05:54:15;;;;;;;13.30;10.18;;;;;;;5.51;100.00;99274.44;1750432;81;25795;-65
2023/12/20 05:56:42;;;;;;;15.20;9.88;;;;;;;5.49;100.00;99266.69;1736823;80;26090;-65
2023/12/20 05:59:09;;;;;;;14.65;10.80;;;;;;;5.49;100.00;99264.56;1752749;80;25957;-65
2023/12/20 06:01:36;;;;;;;13.13;9.93;;;;;;;5.49;100.00;99265.34;1752497;80;25847;-64
2023/12/20 06:04:04;;;;;;;13.32;10.25;;;;;;;5.49;100.00;99272.05;1757247;80;27552;-65
2023/12/20 06:06:31;;;;;;;14.30;10.58;;;;;;;5.48;100.00;99269.11;1764362;79;26009;-64
2023/12/20 06:08:58;;;;;;;15.50;10.35;;;;;;;5.48;100.00;99266.42;1749389;80;26480;-64
2023/12/20 06:11:27;;;;;;;16.20;10.88;;;;;;;5.47;100.00;99270.22;1751321;80;25671;-65
2023/12/20 06:13:54;;;;;;;14.95;10.63;;;;;;;5.48;100.00;99277.16;1756067;80;26604;-64
2023/12/20 06:16:21;;;;;;;14.35;10.25;;;;;;;5.48;100.00;99267.77;1751948;80;27772;-65
2023/12/20 06:18:48;;;;;;;14.25;10.85;;;;;;;5.49;100.00;99276.07;1756808;80;25783;-65
2023/12/20 06:21:15;;;;;;;16.73;11.88;;;;;;;5.48;100.00;99272.34;1750523;80;25780;-64
2023/12/20 06:23:42;;;;;;;12.65;9.73;;;;;;;5.48;100.00;99284.41;1763193;80;25846;-65
2023/12/20 06:26:09;;;;;;;14.40;11.10;;;;;;;5.46;100.00;99276.66;1760278;80;25863;-65
2023/12/20 06:28:36;;;;;;;14.65;10.55;;;;;;;5.47;100.00;99278.82;1756678;80;28345;-64
2023/12/20 06:31:04;;;;;;;14.95;11.30;;;;;;;5.44;100.00;99276.17;1754614;80;25868;-65
2023/12/20 06:33:31;;;;;;;14.93;10.65;;;;;;;5.46;100.00;99286.05;1755585;80;25915;-64
2023/12/20 06:35:58;;;;;;;14.83;11.15;;;;;;;5.46;100.00;99284.71;1756084;80;26568;-66
2023/12/20 06:38:25;;;;;;;14.83;10.95;;;;;;;5.46;100.00;99279.34;1749263;81;25805;-66
2023/12/20 06:40:52;;;;;;;16.15;10.58;;;;;;;5.46;100.00;99279.91;1751272;80;28019;-65
2023/12/20 06:43:19;;;;;;;12.03;9.83;;;;;;;5.45;100.00;99279.11;1754544;80;25838;-65
2023/12/20 06:45:46;;;;;;;15.00;10.72;;;;;;;5.45;100.00;99280.45;1752885;80;25916;-65
2023/12/20 06:48:13;;;;;;;17.40;10.78;;;;;;;5.45;100.00;99267.58;1760511;80;26665;-66
2023/12/20 06:50:40;;;;;;;15.13;10.80;;;;;;;5.43;100.00;99270.02;1758199;80;25798;-65
2023/12/20 06:53:08;;;;;;;14.23;10.28;;;;;;;5.43;100.00;99275.39;1760225;80;27368;-66
2023/12/20 06:55:37;;;;;;;14.38;10.82;;;;;;;5.44;100.00;99285.56;1751906;80;25969;-65
2023/12/20 06:58:04;;;;;;;14.15;11.20;;;;;;;5.43;100.00;99275.91;1759341;80;25502;-65
2023/12/20 07:00:33;;;;;;;15.63;10.55;;;;;;;5.44;100.00;99278.86;1724683;81;25872;-65
2023/12/20 07:03:00;;;;;;;13.58;9.68;;;;;;;5.45;100.00;99283.66;1729132;80;25965;-65
2023/12/20 07:05:27;;;;;;;14.30;10.18;;;;;;;5.43;100.00;99279.94;1725849;80;27347;-65
2023/12/20 07:07:54;;;;;;;12.70;9.43;;;;;;;5.44;100.00;99280.20;1727879;81;25765;-66
2023/12/20 07:10:21;;;;;;;13.38;9.70;;;;;;;5.45;100.00;99283.66;1750094;80;25500;-66
2023/12/20 07:12:48;;;;;;;14.33;9.98;;;;;;;5.45;100.00;99273.75;1749021;81;26343;-66
2023/12/20 07:15:16;;;;;;;15.48;10.35;;;;;;;5.45;100.00;99283.66;1753665;80;25885;-66
2023/12/20 07:17:43;;;;;;;15.32;10.20;;;;;;;5.47;100.00;99277.48;1752261;80;27852;-66
2023/12/20 07:20:12;;;;;;;12.58;8.68;;;;;;;5.47;100.00;99280.16;1755274;80;26019;-64
2023/12/20 07:22:39;;;;;;;15.60;10.40;;;;;;;5.47;100.00;99288.99;1755920;80;25883;-64
2023/12/20 07:25:08;;;;;;;14.00;10.20;;;;;;;5.47;100.00;99288.99;1750178;80;25872;-64
2023/12/20 07:27:35;;;;;;;13.75;9.45;;;;;;;5.47;100.00;99283.63;1752632;80;25848;-64
2023/12/20 07:30:03;;;;;;;13.70;9.18;;;;;;;5.48;100.00;99289.22;1732850;80;27696;-65
2023/12/20 07:32:30;;;;;;;12.47;9.50;;;;;;;5.47;100.00;99295.70;1752331;80;25868;-65
2023/12/20 07:34:56;;;;;;;13.18;9.35;;;;;;;5.46;100.00;99286.61;1756421;79;25435;-65
2023/12/20 07:37:23;;;;;;;13.15;9.10;;;;;;;5.46;100.00;99290.08;1754885;80;26659;-65
2023/12/20 07:39:51;;;;;;;14.63;10.03;;;;;;;5.46;100.00;99298.13;1752844;80;25773;-65
2023/12/20 07:42:18;;;;;;;14.03;9.55;;;;;;;5.45;100.00;99283.66;1750247;81;27725;-65
2023/12/20 07:44:46;;;;;;;14.58;9.98;;;;;;;5.46;100.00;99280.69;1750521;80;25785;-65
2023/12/20 07:47:15;;;;;;;13.50;9.68;;;;;;;5.47;100.00;99282.84;1729881;80;26121;-65
2023/12/20 07:49:41;;;;;;;14.35;10.58;;;;;;;5.48;100.00;99286.54;1751970;80;25891;-69
2023/12/20 07:52:09;;;;;;;12.78;9.90;;;;;;;5.49;100.00;99281.44;1752873;80;25821;-69
2023/12/20 07:54:36;;;;;;;14.38;9.95;;;;;;;5.48;100.00;99285.20;1749389;80;27940;-68
2023/12/20 07:57:03;;;;;;;13.60;10.00;;;;;;;5.49;100.00;99286.80;1756174;80;25807;-68
2023/12/20 07:59:30;;;;;;;13.95;9.85;;;;;;;5.50;100.00;99282.22;1753168;80;25750;-68
2023/12/20 08:01:57;;;;;;;14.18;10.82;;;;;;;5.50;100.00;99280.88;1748759;80;25809;-69
2023/12/20 08:04:24;;;;;;;16.15;10.48;;;;;;;5.50;100.00;99270.15;1757190;80;26047;-69
2023/12/20 08:06:51;;;;;;;18.92;11.20;;;;;;;5.51;100.00;99278.45;1755369;80;27312;-69
2023/12/20 08:09:19;;;;;;;13.50;10.40;;;;;;;5.51;100.00;99276.56;1725044;81;25826;-69
2023/12/20 08:11:47;;;;;;;13.22;10.10;;;;;;;5.50;100.00;99275.52;1729520;80;25788;-69
2023/12/20 08:14:14;;;;;;;16.17;10.60;;;;;;;5.51;100.00;99279.23;1752850;80;25787;-70
2023/12/20 08:16:40;;;;;;;16.23;10.48;;;;;;;5.53;100.00;99275.70;1755186;80;25807;-70
2023/12/20 08:19:07;;;;;;;13.83;10.50;;;;;;;5.51;100.00;99274.44;1715944;82;27288;-70
2023/12/20 08:21:34;;;;;;;15.98;11.12;;;;;;;5.53;100.00;99278.39;1751939;80;25767;-70
2023/12/20 08:24:01;;;;;;;14.70;10.72;;;;;;;5.54;100.00;99273.28;1725633;81;25544;-70
2023/12/20 08:26:28;;;;;;;16.23;10.43;;;;;;;5.55;100.00;99275.41;1759097;80;26523;-71
2023/12/20 08:28:55;;;;;;;13.78;10.13;;;;;;;5.55;100.00;99271.39;1755288;80;25665;-70
2023/12/20 08:31:22;;;;;;;14.07;10.38;;;;;;;5.56;100.00;99275.67;1752637;80;27337;-70
2023/12/20 08:33:49;;;;;;;15.13;10.53;;;;;;;5.55;100.00;99276.75;1760473;80;25774;-71
2023/12/20 08:36:17;;;;;;;14.68;10.20;;;;;;;5.55;100.00;99276.22;1752059;80;25903;-70
2023/12/20 08:38:44;;;;;;;15.20;9.85;;;;;;;5.56;100.00;99272.98;1758287;80;25862;-71
2023/12/20 08:41:11;;;;;;;12.82;9.00;;;;;;;5.54;100.00;99269.81;1722145;81;25458;-70
2023/12/20 08:43:40;;;;;;;14.93;9.23;;;;;;;5.56;100.00;99274.33;1726226;81;27322;-71
2023/12/20 08:46:07;;;;;;;12.13;9.30;;;;;;;5.56;100.00;99275.11;1747842;80;25902;-71
2023/12/20 08:48:33;;;;;;;13.28;9.08;;;;;;;5.55;100.00;99272.73;1749118;80;25491;-71
2023/12/20 08:51:00;;;;;;;11.25;8.33;;;;;;;5.54;100.00;99275.18;1756528;80;25859;-71
2023/12/20 08:53:27;;;;;;;10.82;8.20;;;;;;;5.54;100.00;99275.97;1755928;80;25448;-71
2023/12/20 08:55:54;;;;;;;14.80;9.40;;;;;;;5.52;100.00;99276.81;1751464;80;28065;-70
2023/12/20 08:58:20;;;;;;;14.43;8.08;;;;;;;5.51;100.00;99278.45;1750608;80;25657;-70
2023/12/20 09:00:48;;;;;;;12.18;8.35;;;;;;;5.50;100.00;99270.97;1750467;80;25812;-69
2023/12/20 09:03:14;;;;;;;13.25;8.55;;;;;;;5.52;100.00;99269.33;1750141;80;25831;-69
2023/12/20 09:05:41;;;;;;;11.08;8.08;;;;;;;5.50;100.00;99265.60;1751502;80;25491;-70
2023/12/20 09:08:09;;;;;;;13.88;8.98;;;;;;;5.51;100.00;99262.36;1759842;80;27292;-70
2023/12/20 09:10:37;;;;;;;10.78;7.37;;;;;;;5.50;100.00;99260.77;1756843;80;25591;-71
2023/12/20 09:13:04;;;;;;;10.80;8.13;;;;;;;5.49;100.00;99255.17;1753696;80;25833;-70
2023/12/20 09:15:31;;;;;;;11.03;8.28;;;;;;;5.48;100.00;99256.25;1753168;80;25853;-69
2023/12/20 09:17:58;;;;;;;12.00;8.43;;;;;;;5.47;100.00;99256.02;1755745;80;25833;-70
2023/12/20 09:20:25;;;;;;;9.98;8.08;;;;;;;5.46;100.00;99249.05;1752690;80;28094;-71
2023/12/20 09:22:52;;;;;;;12.68;8.33;;;;;;;5.46;100.00;99247.72;1759350;80;25469;-72
2023/12/20 09:25:19;;;;;;;12.15;8.50;;;;;;;5.48;100.00;99244.18;1753970;80;25783;-70
2023/12/20 09:27:45;;;;;;;10.70;8.05;;;;;;;5.47;100.00;99243.39;1752474;80;26463;-70
2023/12/20 09:30:13;;;;;;;12.63;9.10;;;;;;;5.48;100.00;99242.28;1727735;80;25816;-69
2023/12/20 09:32:39;;;;;;;12.30;8.35;;;;;;;5.47;100.00;99237.25;1750798;80;27296;-71
2023/12/20 09:35:08;;;;;;;11.03;7.72;;;;;;;5.47;100.00;99231.88;1751964;81;25810;-69
2023/12/20 09:37:35;;;;;;;10.90;7.53;;;;;;;5.47;100.00;99232.67;1755708;80;25819;-76
2023/12/20 09:40:02;;;;;;;13.43;7.67;;;;;;;5.47;100.00;99229.98;1751917;80;25747;-76
2023/12/20 09:42:40;;;;;;;11.28;7.70;;;;;;;5.47;100.00;99219.26;1761879;80;25842;-74
2023/12/20 09:45:10;;;;;;;9.73;7.30;;;;;;;5.49;100.00;99219.74;1749777;80;27287;-74
2023/12/20 09:47:37;;;;;;;9.00;6.78;;;;;;;5.45;100.00;99213.41;1748718;80;25747;-72
2023/12/20 09:50:04;;;;;;;10.32;7.67;;;;;;;5.46;100.00;99218.22;1757392;80;25868;-75
2023/12/20 09:52:32;;;;;;;10.75;7.40;;;;;;;5.46;100.00;99213.63;1753823;80;25970;-67
2023/12/20 09:55:01;;;;;;;9.65;7.40;;;;;;;5.44;100.00;99206.44;1759383;80;25858;-66
2023/12/20 09:57:28;;;;;;;14.25;7.87;;;;;;;5.45;100.00;99216.61;1767950;80;27974;-67
2023/12/20 09:59:55;;;;;;;10.78;7.17;;;;;;;5.45;100.00;99206.70;1752438;80;25773;-64
2023/12/20 10:02:32;;;;;;;10.23;6.87;;;;;;;5.46;100.00;99204.25;1755009;80;25806;-65
2023/12/20 10:04:55;;;;;;;10.85;7.17;;;;;;;5.47;100.00;99202.38;1749469;80;25860;-65
2023/12/20 10:07:22;;;;;;;10.30;7.40;;;;;;;5.49;100.00;99201.52;1726861;80;26324;-65
2023/12/20 10:09:49;;;;;;;11.60;7.60;;;;;;;5.49;100.00;99207.67;1756313;80;27791;-65
2023/12/20 10:12:16;;;;;;;10.53;7.80;;;;;;;5.50;100.00;99204.44;1741975;80;26009;-66
2023/12/20 10:14:43;;;;;;;10.75;7.70;;;;;;;5.51;100.00;99208.72;1760096;80;25849;-66
2023/12/20 10:17:10;;;;;;;9.88;6.75;;;;;;;5.49;100.00;99207.67;1752695;80;26321;-66
2023/12/20 10:19:38;;;;;;;10.28;7.75;;;;;;;5.50;100.00;99211.14;1750432;80;25484;-66
2023/12/20 10:22:05;;;;;;;8.68;7.17;;;;;;;5.50;100.00;99197.73;1752145;80;28043;-66
2023/12/20 10:24:32;;;;;;;11.63;7.67;;;;;;;5.51;100.00;99202.02;1752638;80;25784;-66
2023/12/20 10:27:04;;;;;;;10.53;7.75;;;;;;;5.50;100.00;99203.91;1759440;80;25753;-66
2023/12/20 10:29:58;;;;;;;13.18;7.65;;;;;;;5.52;100.00;99196.34;1755929;80;25800;-67
2023/12/20 10:32:27;;;;;;;10.40;7.33;;;;;;;5.50;100.00;99202.56;1634819;86;25960;-67
2023/12/20 10:34:56;;;;;;;9.35;7.20;;;;;;;5.51;100.00;99189.94;1601755;87;27350;-67
2023/12/20 10:37:23;;;;;;;11.65;8.15;;;;;;;5.51;100.00;99194.75;1600480;87;25843;-66
2023/12/20 10:39:56;;;;;;;10.63;7.12;;;;;;;5.52;100.00;99190.20;1611826;87;26045;-66
2023/12/20 10:42:23;;;;;;;10.45;7.62;;;;;;;5.52;100.00;99188.30;1600860;87;26314;-66
2023/12/20 10:44:51;;;;;;;10.63;7.10;;;;;;;5.50;100.00;99181.11;1609909;87;26043;-66
2023/12/20 10:47:20;;;;;;;9.10;6.72;;;;;;;5.50;100.00;99181.11;1605225;87;27435;-65
2023/12/20 10:49:48;;;;;;;10.57;7.60;;;;;;;5.50;100.00;99180.30;1606051;87;26965;-65
2023/12/20 10:52:14;;;;;;;8.98;6.97;;;;;;;5.52;100.00;99184.28;1579232;88;26032;-67
2023/12/20 10:54:42;;;;;;;11.10;7.30;;;;;;;5.51;100.00;99188.59;1604203;87;26255;-67
2023/12/20 10:57:09;;;;;;;9.18;6.90;;;;;;;5.51;100.00;99187.26;1622816;85;25531;-68
2023/12/20 10:59:38;;;;;;;9.53;7.25;;;;;;;5.51;100.00;99184.58;1603921;87;28567;-67
2023/12/20 11:02:06;;;;;;;;;;;;;;;5.51;100.00;99183.23;1632453;86;25890;-65
2023/12/20 11:04:53;;;;;;;9.33;6.67;;;;;;;5.49;100.00;99180.85;1622458;86;25463;-67
2023/12/20 11:07:32;;;;;;;7.97;6.40;;;;;;;5.48;100.00;99169.08;1628189;86;26697;-67
2023/12/20 11:10:07;;;;;;;11.53;7.47;;;;;;;5.49;100.00;99170.68;1634531;86;25408;-67
2023/12/20 11:12:59;;;;;;;8.33;6.90;;;;;;;5.50;100.00;99165.55;1657597;84;27351;-67
2023/12/20 11:15:28;;;;;;;8.68;6.72;;;;;;;5.50;100.00;99163.67;1622082;86;25866;-65
2023/12/20 11:17:59;;;;;;;10.68;7.62;;;;;;;5.51;100.00;99152.39;1625931;86;25948;-65
2023/12/20 11:20:40;;;;;;;10.95;7.62;;;;;;;5.53;100.00;99152.88;1675247;84;26503;-64
2023/12/20 11:23:09;;;;;;;12.00;7.97;;;;;;;5.55;100.00;99150.15;1665012;84;25886;-66
2023/12/20 11:25:58;;;;;;;10.20;7.92;;;;;;;5.56;100.00;99147.70;1673655;84;28119;-65